^^
Station Historical Data
Daily Summary for June 20, 2017 Units:  English    Metric   Both
« Previous Day
Next Day »
Daily Weekly Monthly Yearly Custom
  High: Low: Average:
Temperature: 71.8 °F 48.4 °F 59.9 °F
Dew Point: 56.5 °F 47.8 °F 51.9 °F
Humidity: 98% 46% 78%
Wind Speed: 12.7mph 0.0mph 3.7mph
Wind Gust: 12.7mph - -
Wind- - WSW
Pressure: 29.89 in 29.77 in -
Precipitation: 0.02 in    
Historical Graphs
 
 
Tabular Data for June 20, 2017
Time Temperature Dew Point Pressure Wind Wind Speed Wind Gust Humidity Rainfall Rate (Hourly) solar Conditions
00:00 53.8 °F 53.2 °F 29.81 in WSW 3.5 mph 3.5 mph 98% 0.00 in 0.0 W/m2 RA
00:05 53.8 °F 53.2 °F 29.79 in WSW 3.5 mph 3.5 mph 98% 0.00 in 0.0 W/m2 RA
00:10 53.8 °F 53.2 °F 29.79 in WSW 2.3 mph 2.3 mph 98% 0.00 in 0.0 W/m2 BKN
00:15 53.4 °F 52.9 °F 29.81 in WSW 2.3 mph 2.3 mph 98% 0.00 in 0.0 W/m2 BKN
00:20 53.2 °F 52.7 °F 29.81 in West 1.2 mph 1.2 mph 98% 0.00 in 0.0 W/m2 BKN
00:25 53.1 °F 52.5 °F 29.79 in West 2.3 mph 2.3 mph 98% 0.00 in 0.0 W/m2 BKN
00:30 53.1 °F 52.5 °F 29.81 in West 2.3 mph 2.3 mph 98% 0.00 in 0.0 W/m2 BKN
00:35 52.5 °F 52.0 °F 29.81 in WSW 3.5 mph 3.5 mph 98% 0.00 in 0.0 W/m2 BKN
00:40 52.9 °F 52.3 °F 29.81 in WSW 3.5 mph 3.5 mph 98% 0.00 in 0.0 W/m2 BKN
00:45 52.5 °F 52.0 °F 29.80 in WSW 3.5 mph 3.5 mph 98% 0.00 in 0.0 W/m2 BKN
00:50 52.9 °F 52.3 °F 29.80 in WSW 3.5 mph 3.5 mph 98% 0.00 in 0.0 W/m2 BKN
00:55 53.1 °F 52.5 °F 29.80 in West 3.5 mph 3.5 mph 98% 0.00 in 0.0 W/m2 BKN
01:00 53.1 °F 52.5 °F 29.80 in West 3.5 mph 3.5 mph 98% 0.00 in 0.0 W/m2 BKN
01:05 53.2 °F 52.7 °F 29.80 in West 3.5 mph 3.5 mph 98% 0.00 in 0.0 W/m2 BKN
01:10 53.2 °F 52.7 °F 29.80 in WSW 2.3 mph 2.3 mph 98% 0.00 in 0.0 W/m2 BKN
01:15 53.1 °F 52.5 °F 29.80 in WSW 2.3 mph 2.3 mph 98% 0.00 in 0.0 W/m2 BKN
01:20 52.5 °F 52.0 °F 29.80 in WSW 2.3 mph 2.3 mph 98% 0.00 in 0.0 W/m2 BKN
01:25 52.5 °F 52.0 °F 29.80 in WSW 3.5 mph 3.5 mph 98% 0.00 in 0.0 W/m2 BKN
01:30 52.3 °F 51.8 °F 29.80 in West 3.5 mph 3.5 mph 98% 0.00 in 0.0 W/m2 BKN
01:35 52.5 °F 52.0 °F 29.80 in West 3.5 mph 3.5 mph 98% 0.00 in 0.0 W/m2 BKN
01:40 52.3 °F 51.8 °F 29.80 in WSW 2.3 mph 2.3 mph 98% 0.00 in 0.0 W/m2 BKN
01:45 52.3 °F 51.8 °F 29.80 in WSW 2.3 mph 2.3 mph 98% 0.00 in 0.0 W/m2 BKN
01:50 52.3 °F 51.8 °F 29.80 in West 3.5 mph 3.5 mph 98% 0.00 in 0.0 W/m2 BKN
01:55 52.5 °F 52.0 °F 29.80 in West 4.6 mph 4.6 mph 98% 0.00 in 0.0 W/m2 BKN
02:00 52.5 °F 52.0 °F 29.80 in WSW 4.6 mph 4.6 mph 98% 0.00 in 0.0 W/m2 BKN
02:05 52.5 °F 52.0 °F 29.80 in WSW 4.6 mph 4.6 mph 98% 0.00 in 0.0 W/m2 BKN
02:10 52.5 °F 52.0 °F 29.80 in SW 3.5 mph 3.5 mph 98% 0.00 in 0.0 W/m2 BKN
02:15 52.5 °F 52.0 °F 29.80 in WSW 3.5 mph 3.5 mph 98% 0.00 in 0.0 W/m2 BKN
02:20 52.5 °F 52.0 °F 29.80 in WSW 3.5 mph 3.5 mph 98% 0.00 in 0.0 W/m2 BKN
02:25 52.5 °F 52.0 °F 29.79 in WSW 3.5 mph 3.5 mph 98% 0.00 in 0.0 W/m2 BKN
02:30 52.5 °F 52.0 °F 29.79 in WSW 2.3 mph 2.3 mph 98% 0.00 in 0.0 W/m2 BKN
02:35 52.5 °F 52.0 °F 29.80 in West 3.5 mph 3.5 mph 98% 0.00 in 0.0 W/m2 BKN
02:40 52.5 °F 52.0 °F 29.79 in West 3.5 mph 3.5 mph 98% 0.00 in 0.0 W/m2 BKN
02:45 52.5 °F 52.0 °F 29.79 in WSW 3.5 mph 3.5 mph 98% 0.00 in 0.0 W/m2 BKN
02:50 52.3 °F 51.8 °F 29.79 in WSW 3.5 mph 3.5 mph 98% 0.00 in 0.0 W/m2 BKN
02:55 52.2 °F 51.6 °F 29.79 in WSW 2.3 mph 2.3 mph 98% 0.00 in 0.0 W/m2 BKN
03:00 52.0 °F 51.4 °F 29.79 in SW 2.3 mph   98% 0.00 in 0.0 W/m2 BKN
03:05 51.8 °F 51.3 °F 29.79 in SW 2.3 mph   98% 0.00 in 0.0 W/m2 OVC
03:10 51.4 °F 50.9 °F 29.79 in Calm     98% 0.00 in 0.0 W/m2 OVC
03:15 51.1 °F 50.5 °F 29.78 in Calm     98% 0.00 in 0.0 W/m2 OVC
03:20 50.9 °F 50.4 °F 29.79 in Calm     98% 0.00 in 0.0 W/m2 OVC
03:25 50.7 °F 50.2 °F 29.79 in Calm     98% 0.00 in 0.0 W/m2 OVC
03:30 50.4 °F 49.8 °F 29.78 in Calm     98% 0.00 in 0.0 W/m2 OVC
03:35 50.0 °F 49.5 °F 29.79 in Calm     98% 0.00 in 0.0 W/m2 OVC
03:40 49.8 °F 49.3 °F 29.78 in West 1.2 mph 1.2 mph 98% 0.00 in 0.0 W/m2 OVC
03:45 49.8 °F 49.3 °F 29.79 in WSW 2.3 mph 2.3 mph 98% 0.00 in 0.0 W/m2 OVC
03:50 49.8 °F 49.3 °F 29.78 in WSW 3.5 mph 3.5 mph 98% 0.00 in 0.0 W/m2 OVC
03:55 49.8 °F 49.3 °F 29.78 in WSW 3.5 mph 3.5 mph 98% 0.00 in 0.0 W/m2 OVC
04:00 49.8 °F 49.3 °F 29.78 in WSW 3.5 mph 3.5 mph 98% 0.00 in 0.0 W/m2 OVC
04:05 49.8 °F 49.3 °F 29.78 in WSW 2.3 mph 2.3 mph 98% 0.00 in 0.0 W/m2 SCT
04:10 49.8 °F 49.3 °F 29.77 in WSW 2.3 mph 2.3 mph 98% 0.00 in 0.0 W/m2 SCT
04:15 49.6 °F 49.1 °F 29.77 in WSW 2.3 mph 2.3 mph 98% 0.00 in 0.0 W/m2 SCT
04:20 49.5 °F 48.9 °F 29.77 in SW 2.3 mph   98% 0.00 in 0.0 W/m2 SCT
04:25 49.3 °F 48.7 °F 29.78 in Calm     98% 0.00 in 0.0 W/m2 SCT
04:30 48.9 °F 48.4 °F 29.77 in WSW 1.2 mph 1.2 mph 98% 0.00 in 0.0 W/m2 SCT
04:35 48.9 °F 48.4 °F 29.79 in SW 1.2 mph   98% 0.00 in 0.0 W/m2 SCT
04:40 48.6 °F 48.0 °F 29.79 in WSW 1.2 mph 1.2 mph 98% 0.00 in 0.0 W/m2 SCT
04:45 48.6 °F 48.0 °F 29.79 in West 1.2 mph   98% 0.00 in 0.0 W/m2 SCT
04:50 48.6 °F 48.0 °F 29.79 in Calm     98% 0.00 in 0.0 W/m2 SCT
04:55 48.4 °F 47.8 °F 29.79 in Calm   0.2 mph 98% 0.00 in 0.0 W/m2 SCT
05:00 48.6 °F 48.0 °F 29.79 in SW 1.2 mph 1.2 mph 98% 0.00 in 136.0 W/m2 SCT
05:05 48.6 °F 48.0 °F 29.80 in WSW 1.2 mph 1.2 mph 98% 0.00 in 159.3 W/m2 BKN
05:10 48.6 °F 48.0 °F 29.80 in WSW 1.2 mph   98% 0.00 in 185.5 W/m2 BKN
05:15 48.6 °F 48.0 °F 29.80 in WSW 1.2 mph   98% 0.00 in 198.7 W/m2 BKN
05:20 48.9 °F 48.4 °F 29.80 in WSW 1.2 mph 1.2 mph 98% 0.00 in 214.8 W/m2 BKN
05:25 49.3 °F 48.7 °F 29.81 in SW 2.3 mph 2.3 mph 98% 0.00 in 217.8 W/m2 BKN
05:30 49.5 °F 48.9 °F 29.81 in SW 3.5 mph 3.5 mph 98% 0.00 in 229.0 W/m2 BKN
05:35 49.6 °F 49.1 °F 29.81 in WSW 3.5 mph 3.5 mph 98% 0.00 in 236.0 W/m2 BKN
05:40 49.6 °F 49.1 °F 29.82 in West 2.3 mph 2.3 mph 98% 0.00 in 241.1 W/m2 BKN
05:45 49.8 °F 49.3 °F 29.82 in WSW 2.3 mph 2.3 mph 98% 0.00 in 247.1 W/m2 BKN
05:50 50.2 °F 49.6 °F 29.81 in WSW 2.3 mph 2.3 mph 98% 0.00 in 251.2 W/m2 BKN
05:55 50.2 °F 49.6 °F 29.82 in WSW 3.5 mph 3.5 mph 98% 0.00 in 260.3 W/m2 BKN
06:00 50.4 °F 49.8 °F 29.82 in WSW 3.5 mph 3.5 mph 98% 0.00 in 270.4 W/m2 BKN
06:05 50.4 °F 49.8 °F 29.82 in WSW 3.5 mph 3.5 mph 98% 0.00 in 259.3 W/m2 BKN
06:10 50.5 °F 50.0 °F 29.82 in WSW 3.5 mph 3.5 mph 98% 0.00 in 248.2 W/m2 BKN
06:15 50.5 °F 50.0 °F 29.82 in WSW 3.5 mph 3.5 mph 98% 0.00 in 247.1 W/m2 BKN
06:20 50.5 °F 50.0 °F 29.82 in WSW 3.5 mph 3.5 mph 98% 0.00 in 256.2 W/m2 BKN
06:25 50.9 °F 50.4 °F 29.82 in WSW 3.5 mph 3.5 mph 98% 0.00 in 277.4 W/m2 BKN
06:30 51.1 °F 50.5 °F 29.82 in WSW 3.5 mph 3.5 mph 98% 0.00 in 288.6 W/m2 BKN
06:31 51.1 °F 50.5 °F 29.82 in WSW 3.5 mph 3.5 mph 98% 0.00 in 288.6 W/m2 BKN
06:36 51.8 °F 51.3 °F 29.82 in WSW 3.5 mph 3.5 mph 98% 0.00 in 297.6 W/m2 BKN
06:41 52.5 °F 52.0 °F 29.82 in WSW 2.3 mph 2.3 mph 98% 0.00 in 308.8 W/m2 BKN
06:46 53.1 °F 52.5 °F 29.82 in SW 3.5 mph 3.5 mph 98% 0.00 in 311.8 W/m2 BKN
06:51 53.4 °F 52.9 °F 29.82 in WSW 3.5 mph 3.5 mph 98% 0.00 in 309.8 W/m2 BKN
06:56 53.2 °F 52.7 °F 29.83 in West 5.8 mph 5.8 mph 98% 0.00 in 302.7 W/m2 BKN
07:01 53.2 °F 52.7 °F 29.83 in WSW 5.8 mph 5.8 mph 98% 0.00 in 293.6 W/m2 BKN
07:06 53.2 °F 52.7 °F 29.82 in WSW 5.8 mph 5.8 mph 98% 0.00 in 286.5 W/m2 BKN
07:11 53.2 °F 52.7 °F 29.83 in WSW 3.5 mph 3.5 mph 98% 0.00 in 278.4 W/m2 BKN
07:16 53.4 °F 52.3 °F 29.83 in WSW 3.5 mph 3.5 mph 96% 0.00 in 276.4 W/m2 BKN
07:21 54.7 °F 53.3 °F 29.85 in WSW 5.8 mph 5.8 mph 95% 0.00 in 277.4 W/m2 BKN
07:26 55.0 °F 53.1 °F 29.83 in WSW 5.8 mph 5.8 mph 93% 0.00 in 311.8 W/m2 BKN
07:31 55.6 °F 53.0 °F 29.83 in WSW 6.9 mph 6.9 mph 91% 0.00 in 330.0 W/m2 BKN
07:37 56.7 °F 53.1 °F 29.83 in West 6.9 mph 6.9 mph 88% 0.00 in 338.0 W/m2 BKN
07:42 57.6 °F 53.4 °F 29.82 in WSW 8.1 mph 8.1 mph 86% 0.00 in 338.0 W/m2 BKN
07:47 56.8 °F 52.7 °F 29.83 in WSW 8.1 mph 8.1 mph 86% 0.00 in 349.2 W/m2 BKN
07:52 56.8 °F 52.7 °F 29.83 in West 8.1 mph 8.1 mph 86% 0.00 in 343.1 W/m2 BKN
07:57 57.9 °F 53.8 °F 29.83 in West 6.9 mph 6.9 mph 86% 0.00 in 346.1 W/m2 BKN
08:02 57.9 °F 52.8 °F 29.83 in WSW 6.9 mph 6.9 mph 83% 0.00 in 331.0 W/m2 BKN
08:07 57.7 °F 52.6 °F 29.83 in WSW 4.6 mph 4.6 mph 83% 0.00 in 326.9 W/m2 BKN
08:12 57.7 °F 52.6 °F 29.83 in West 4.6 mph 4.6 mph 83% 0.00 in 365.3 W/m2 BKN
08:17 58.5 °F 53.3 °F 29.85 in WNW 3.5 mph 3.5 mph 83% 0.00 in 350.2 W/m2 BKN
08:22 58.8 °F 53.0 °F 29.83 in West 5.8 mph 5.8 mph 81% 0.00 in 323.9 W/m2 BKN
08:27 58.5 °F 53.3 °F 29.83 in West 5.8 mph 5.8 mph 83% 0.00 in 515.0 W/m2 BKN
08:32 58.3 °F 52.5 °F 29.83 in WNW 6.9 mph 6.9 mph 81% 0.00 in 530.0 W/m2 BKN
08:37 58.5 °F 52.6 °F 29.83 in WNW 6.9 mph 6.9 mph 81% 0.00 in 347.1 W/m2 BKN
08:42 58.5 °F 52.6 °F 29.85 in West 6.9 mph 6.9 mph 81% 0.00 in 377.4 W/m2 BKN
08:47 58.5 °F 52.6 °F 29.83 in WSW 3.5 mph 3.5 mph 81% 0.00 in 364.3 W/m2 BKN
08:52 60.3 °F 53.7 °F 29.83 in WSW 3.5 mph 3.5 mph 79% 0.00 in 364.3 W/m2 BKN
08:57 61.9 °F 53.5 °F 29.85 in West 6.9 mph 6.9 mph 74% 0.00 in 579.4 W/m2 BKN
09:02 62.4 °F 53.6 °F 29.83 in WNW 6.9 mph 6.9 mph 73% 0.00 in 618.0 W/m2 OVC
09:07 63.7 °F 53.3 °F 29.83 in WNW 8.1 mph 8.1 mph 69% 0.00 in 633.0 W/m2 OVC
09:12 63.9 °F 53.5 °F 29.83 in NW 8.1 mph 8.1 mph 69% 0.00 in 647.0 W/m2 OVC
09:17 64.4 °F 51.5 °F 29.85 in NW 8.1 mph 8.1 mph 63% 0.00 in 660.0 W/m2 OVC
09:22 63.9 °F 51.9 °F 29.84 in West 11.5 mph 11.5 mph 65% 0.00 in 674.0 W/m2 OVC
09:27 63.1 °F 51.6 °F 29.84 in West 11.5 mph 11.5 mph 66% 0.00 in 687.0 W/m2 OVC
09:32 63.7 °F 50.8 °F 29.84 in West 11.5 mph 11.5 mph 63% 0.00 in 701.0 W/m2 OVC
09:37 64.0 °F 50.3 °F 29.84 in West 11.5 mph 11.5 mph 61% 0.00 in 848.1 W/m2 OVC
09:42 64.9 °F 52.0 °F 29.84 in West 6.9 mph 6.9 mph 63% 0.00 in 876.4 W/m2 OVC
09:47 64.9 °F 52.0 °F 29.84 in WNW 6.9 mph 6.9 mph 63% 0.00 in 858.2 W/m2 OVC
09:52 64.9 °F 51.2 °F 29.84 in NW 5.8 mph 5.8 mph 61% 0.00 in 751.0 W/m2 OVC
09:57 65.7 °F 51.4 °F 29.83 in WNW 10.4 mph 10.4 mph 60% 0.00 in 887.5 W/m2 OVC
10:02 66.6 °F 51.3 °F 29.83 in WNW 10.4 mph 10.4 mph 58% 0.00 in 775.0 W/m2 BKN
10:07 66.9 °F 50.7 °F 29.83 in NW 5.8 mph 5.8 mph 56% 0.00 in 787.0 W/m2 BKN
10:12 67.8 °F 52.5 °F 29.82 in WNW 4.6 mph 4.6 mph 58% 0.00 in 798.0 W/m2 BKN
10:17 69.1 °F 51.2 °F 29.82 in West 8.1 mph 8.1 mph 53% 0.00 in 809.0 W/m2 BKN
10:22 68.4 °F 51.6 °F 29.83 in West 8.1 mph 8.1 mph 55% 0.00 in 820.0 W/m2 BKN
10:27 65.1 °F 53.1 °F 29.83 in WSW 8.1 mph 8.1 mph 65% 0.00 in 830.0 W/m2 BKN
10:32 65.5 °F 55.0 °F 29.83 in SSW 4.6 mph 4.6 mph 69% 0.00 in 589.5 W/m2 BKN
10:37 66.6 °F 54.4 °F 29.83 in SSW 6.9 mph 6.9 mph 65% 0.00 in 860.2 W/m2 BKN
10:43 67.6 °F 54.6 °F 29.82 in WSW 6.9 mph 6.9 mph 63% 0.00 in 892.5 W/m2 BKN
10:48 68.5 °F 54.1 °F 29.82 in West 6.9 mph 6.9 mph 60% 0.00 in 899.6 W/m2 BKN
10:53 67.6 °F 53.7 °F 29.82 in West 8.1 mph 8.1 mph 61% 0.00 in 901.6 W/m2 BKN
10:58 65.5 °F 53.4 °F 29.82 in West 8.1 mph 8.1 mph 65% 0.00 in 826.9 W/m2 BKN
11:03 65.1 °F 54.7 °F 29.82 in WSW 8.1 mph 8.1 mph 69% 0.00 in 837.0 W/m2 OVC
11:08 65.1 °F 53.1 °F 29.82 in SW 6.9 mph 6.9 mph 65% 0.00 in 793.6 W/m2 OVC
11:13 64.6 °F 52.5 °F 29.82 in North 6.9 mph 6.9 mph 65% 0.00 in 611.7 W/m2 OVC
11:18 64.0 °F 52.4 °F 29.82 in NW 6.9 mph 6.9 mph 66% 0.00 in 611.7 W/m2 OVC
11:23 63.7 °F 53.7 °F 29.82 in SW 6.9 mph 6.9 mph 70% 0.00 in 380.5 W/m2 OVC
11:28 64.6 °F 54.2 °F 29.82 in South 4.6 mph 4.6 mph 69% 0.00 in 565.3 W/m2 OVC
11:33 64.4 °F 53.6 °F 29.82 in West 4.6 mph 4.6 mph 68% 0.00 in 830.9 W/m2 OVC
11:38 63.3 °F 53.4 °F 29.82 in WSW 4.6 mph 4.6 mph 70% 0.00 in 376.4 W/m2 OVC
11:43 62.4 °F 54.4 °F 29.82 in WSW 4.6 mph 4.6 mph 75% 0.00 in 363.3 W/m2 OVC
11:48 64.4 °F 54.4 °F 29.82 in WSW 4.6 mph 4.6 mph 70% 0.00 in 837.0 W/m2 OVC
11:53 62.4 °F 54.4 °F 29.82 in WSW 4.6 mph 4.6 mph 75% 0.00 in 695.6 W/m2 OVC
11:58 62.4 °F 54.4 °F 29.82 in WSW 4.6 mph 4.6 mph 75% 0.00 in 434.0 W/m2 OVC
12:03 63.0 °F 54.2 °F 29.82 in SW 3.5 mph 3.5 mph 73% 0.00 in 768.3 W/m2 OVC
12:08 65.5 °F 55.0 °F 29.82 in WSW 5.8 mph 5.8 mph 69% 0.00 in 880.4 W/m2 OVC
12:13 66.6 °F 53.6 °F 29.82 in West 10.4 mph 10.4 mph 63% 0.00 in 908.7 W/m2 OVC
12:18 67.3 °F 55.1 °F 29.82 in West 10.4 mph 10.4 mph 65% 0.00 in 908.7 W/m2 OVC
12:23 66.6 °F 54.8 °F 29.82 in West 10.4 mph 10.4 mph 66% 0.00 in 891.5 W/m2 OVC
12:28 65.5 °F 53.4 °F 29.82 in West 9.2 mph 9.2 mph 65% 0.00 in 891.5 W/m2 OVC
12:33 66.0 °F 55.2 °F 29.81 in WNW 9.2 mph 9.2 mph 68% 0.00 in 822.8 W/m2 OVC
12:38 67.8 °F 54.8 °F 29.81 in West 9.2 mph 9.2 mph 63% 0.00 in 904.7 W/m2 OVC
12:43 68.9 °F 54.4 °F 29.81 in West 9.2 mph 9.2 mph 60% 0.00 in 904.7 W/m2 OVC
12:48 69.6 °F 54.2 °F 29.80 in WNW 6.9 mph 6.9 mph 58% 0.00 in 902.6 W/m2 OVC
12:53 70.2 °F 54.7 °F 29.80 in West 5.8 mph 5.8 mph 58% 0.00 in 902.6 W/m2 OVC
12:58 71.1 °F 53.6 °F 29.80 in West 6.9 mph 6.9 mph 54% 0.00 in 902.6 W/m2 OVC
13:03 71.4 °F 52.3 °F 29.80 in West 6.9 mph 6.9 mph 51% 0.00 in 902.6 W/m2 OVC
13:08 69.8 °F 52.4 °F 29.80 in WSW 6.9 mph 6.9 mph 54% 0.00 in 904.7 W/m2 OVC
13:13 65.1 °F 53.1 °F 29.82 in WNW 12.7 mph 12.7 mph 65% 0.00 in 497.6 W/m2 OVC
13:14 64.6 °F 53.0 °F 29.82 in WNW 12.7 mph 12.7 mph 66% 0.00 in 497.6 W/m2 OVC
13:19 60.6 °F 52.3 °F 29.81 in WNW 12.7 mph 12.7 mph 74% 0.02 in 350.2 W/m2 RA
13:24 60.3 °F 54.1 °F 29.81 in WSW 5.8 mph 5.8 mph 80% 0.02 in 371.4 W/m2 RA
13:29 61.5 °F 54.6 °F 29.81 in WNW 3.5 mph 3.5 mph 78% 0.02 in 754.2 W/m2 OVC
13:34 63.0 °F 54.9 °F 29.81 in WNW 2.3 mph 2.3 mph 75% 0.02 in 754.2 W/m2 OVC
13:39 64.9 °F 54.9 °F 29.80 in West 3.5 mph 3.5 mph 70% 0.02 in 883.4 W/m2 OVC
13:44 67.5 °F 56.5 °F 29.80 in WSW 3.5 mph 3.5 mph 68% 0.02 in 904.7 W/m2 OVC
13:49 68.4 °F 54.4 °F 29.80 in NW 6.9 mph 6.9 mph 61% 0.02 in 887.5 W/m2 OVC
13:54 68.9 °F 52.1 °F 29.80 in NW 8.1 mph 8.1 mph 55% 0.02 in 905.7 W/m2 OVC
13:59 69.1 °F 52.2 °F 29.80 in WNW 8.1 mph 8.1 mph 55% 0.02 in 868.3 W/m2 OVC
14:04 70.0 °F 51.0 °F 29.80 in West 6.9 mph 6.9 mph 51% 0.02 in 904.7 W/m2 OVC
14:09 68.4 °F 51.6 °F 29.80 in West 9.2 mph 9.2 mph 55% 0.02 in 888.5 W/m2 OVC
14:10 68.4 °F 51.6 °F 29.81 in West 9.2 mph 9.2 mph 55% 0.02 in 888.5 W/m2 OVC
14:15 70.2 °F 53.2 °F 29.81 in WSW 9.2 mph 9.2 mph 55% 0.02 in 839.0 W/m2 OVC
14:20 70.1 °F 51.1 °F 29.81 in WSW 3.0 mph 7.0 mph 51% 0.00 in 901.6 W/m2 OVC
14:25 68.4 °F 50.6 °F 29.80 in WSW 5.0 mph 7.0 mph 53% 0.00 in 755.2 W/m2 OVC
14:30 68.0 °F 51.2 °F 29.81 in West 2.0 mph 6.0 mph 55% 0.00 in 813.7 W/m2 OVC
14:35 68.2 °F 51.9 °F 29.81 in NW 3.0 mph 7.0 mph 56% 0.00 in 814.8 W/m2 OVC
14:40 70.3 °F 51.3 °F 29.81 in NW 3.0 mph 7.0 mph 51% 0.00 in 867.3 W/m2 OVC
14:45 71.8 °F 52.1 °F 29.81 in WNW 3.0 mph 6.0 mph 50% 0.00 in 893.0 W/m2 OVC
14:50 70.5 °F 48.7 °F 29.81 in WNW 2.0 mph 7.0 mph 46% 0.00 in 885.0 W/m2 OVC
14:55 70.9 °F 51.3 °F 29.82 in WNW 6.9 mph 6.9 mph 50% 0.00 in 883.4 W/m2 OVC
15:00 69.1 °F 51.8 °F 29.82 in NNE 1.0 mph 3.0 mph 54% 0.00 in 855.2 W/m2 OVC
15:05 67.7 °F 51.5 °F 29.82 in North 2.0 mph 5.0 mph 56% 0.00 in 597.6 W/m2 BKN
15:10 67.8 °F 51.5 °F 29.81 in NNW 4.6 mph 4.6 mph 56% 0.00 in 471.4 W/m2 BKN
15:15 68.4 °F 51.6 °F 29.82 in ENE 1.0 mph 3.0 mph 55% 0.00 in 836.0 W/m2 BKN
15:20 68.9 °F 51.1 °F 29.82 in West 3.5 mph 3.5 mph 53% 0.00 in 860.2 W/m2 BKN
15:25 68.9 °F 51.6 °F 29.82 in WNW 3.5 mph 3.5 mph 54% 0.00 in 850.1 W/m2 BKN
15:29 68.4 °F 51.1 °F 29.82 in WNW 3.5 mph 3.5 mph 54% 0.00 in 581.4 W/m2 BKN
15:35 69.1 °F 49.7 °F 29.82 in WNW 5.8 mph 5.8 mph 50% 0.00 in 581.4 W/m2 BKN
15:40 68.0 °F 50.2 °F 29.82 in WNW 5.8 mph 5.8 mph 53% 0.00 in 827.9 W/m2 BKN
15:45 67.3 °F 50.6 °F 29.82 in WNW 5.8 mph 5.8 mph 55% 0.00 in 366.3 W/m2 BKN
15:50 67.3 °F 50.6 °F 29.81 in NW 4.6 mph 4.6 mph 55% 0.00 in 399.7 W/m2 BKN
15:55 67.8 °F 50.6 °F 29.82 in North 4.6 mph 4.6 mph 54% 0.00 in 648.1 W/m2 BKN
16:00 68.9 °F 51.6 °F 29.82 in WNW 3.5 mph 3.5 mph 54% 0.00 in 850.1 W/m2 BKN
16:02 70.0 °F 51.0 °F 29.82 in West 3.5 mph 3.5 mph 51% 0.00 in 870.3 W/m2 OVC
16:07 70.3 °F 50.3 °F 29.82 in ENE 2.3 mph 2.3 mph 49% 0.00 in 854.2 W/m2 OVC
16:13 69.4 °F 52.1 °F 29.82 in North 3.5 mph 3.5 mph 54% 0.00 in 792.5 W/m2 OVC
16:17 70.0 °F 50.5 °F 29.81 in West 3.5 mph 3.5 mph 50% 0.00 in 541.1 W/m2 OVC
16:22 69.3 °F 49.8 °F 29.81 in South 5.8 mph 5.8 mph 50% 0.00 in 835.0 W/m2 OVC
16:28 69.4 °F 50.0 °F 29.81 in SSE 5.8 mph 5.8 mph 50% 0.00 in 819.8 W/m2 OVC
16:33 69.8 °F 50.3 °F 29.81 in NW 3.5 mph 3.5 mph 50% 0.00 in 819.8 W/m2 OVC
16:38 68.5 °F 50.7 °F 29.81 in NW 2.3 mph 2.3 mph 53% 0.00 in 635.0 W/m2 OVC
16:43 67.8 °F 51.1 °F 29.81 in WNW 2.3 mph 2.3 mph 55% 0.00 in 378.4 W/m2 OVC
16:48 67.8 °F 50.6 °F 29.81 in West 2.3 mph 2.3 mph 54% 0.00 in 365.3 W/m2 OVC
16:53 68.2 °F 50.9 °F 29.83 in WSW 3.5 mph 3.5 mph 54% 0.00 in 415.8 W/m2 OVC
16:58 68.4 °F 50.6 °F 29.81 in West 3.5 mph 3.5 mph 53% 0.00 in 732.9 W/m2 OVC
17:03 69.1 °F 50.2 °F 29.81 in North 3.5 mph 3.5 mph 51% 0.00 in 563.0 W/m2 BKN
17:08 69.4 °F 50.5 °F 29.81 in NNW 4.6 mph 4.6 mph 51% 0.00 in 548.0 W/m2 BKN
17:13 68.5 °F 50.7 °F 29.81 in NW 4.6 mph 4.6 mph 53% 0.00 in 533.0 W/m2 BKN
17:18 68.5 °F 50.7 °F 29.81 in NNW 4.6 mph 4.6 mph 53% 0.00 in 477.4 W/m2 BKN
17:23 68.9 °F 51.1 °F 29.83 in NW 4.6 mph 4.6 mph 53% 0.00 in 503.0 W/m2 BKN
17:28 69.4 °F 50.5 °F 29.83 in WNW 3.5 mph 3.5 mph 51% 0.00 in 488.0 W/m2 BKN
17:33 70.2 °F 50.6 °F 29.83 in WNW 5.8 mph 5.8 mph 50% 0.00 in 473.0 W/m2 BKN
17:38 70.5 °F 51.5 °F 29.82 in West 5.8 mph 5.8 mph 51% 0.00 in 457.0 W/m2 BKN
17:43 70.0 °F 50.5 °F 29.82 in NW 4.6 mph 4.6 mph 50% 0.00 in 442.0 W/m2 BKN
17:48 69.3 °F 51.9 °F 29.82 in NW 4.6 mph 4.6 mph 54% 0.00 in 426.0 W/m2 BKN
17:53 68.9 °F 51.6 °F 29.82 in WNW 3.5 mph 3.5 mph 54% 0.00 in 464.3 W/m2 BKN
17:58 70.9 °F 51.3 °F 29.82 in West 3.5 mph 3.5 mph 50% 0.00 in 395.0 W/m2 BKN
18:03 71.1 °F 51.5 °F 29.82 in WNW 3.5 mph 3.5 mph 50% 0.00 in 380.0 W/m2 BKN
18:08 71.4 °F 51.8 °F 29.82 in NW 3.5 mph 3.5 mph 50% 0.00 in 803.7 W/m2 BKN
18:13 71.1 °F 51.5 °F 29.81 in NNW 2.3 mph 2.3 mph 50% 0.00 in 349.0 W/m2 BKN
18:18 70.2 °F 52.7 °F 29.82 in WSW 2.3 mph 2.3 mph 54% 0.00 in 334.0 W/m2 BKN
18:23 69.4 °F 50.5 °F 29.82 in West 2.3 mph 2.3 mph 51% 0.00 in 318.0 W/m2 BKN
18:28 68.4 °F 51.6 °F 29.82 in NW 2.3 mph 2.3 mph 55% 0.00 in 303.0 W/m2 BKN
18:33 69.4 °F 52.1 °F 29.82 in NW 2.3 mph 2.3 mph 54% 0.00 in 288.0 W/m2 BKN
18:38 71.4 °F 51.8 °F 29.82 in ENE 3.5 mph 3.5 mph 50% 0.00 in 273.0 W/m2 BKN
18:43 70.3 °F 52.4 °F 29.82 in ENE 3.5 mph 3.5 mph 53% 0.00 in 258.0 W/m2 BKN
18:48 69.4 °F 52.1 °F 29.83 in NNE 3.5 mph 3.5 mph 54% 0.00 in 243.0 W/m2 BKN
18:53 69.6 °F 52.7 °F 29.82 in SW 3.5 mph 3.5 mph 55% 0.00 in 228.0 W/m2 BKN
18:58 71.4 °F 51.8 °F 29.82 in SE 2.3 mph 2.3 mph 50% 0.00 in 214.0 W/m2 BKN
19:03 68.9 °F 54.0 °F 29.82 in East 2.3 mph   59% 0.00 in 200.0 W/m2 BKN
19:08 69.3 °F 54.3 °F 29.82 in NW 1.2 mph 1.2 mph 59% 0.00 in 185.0 W/m2 BKN
19:13 69.8 °F 53.4 °F 29.82 in NW 1.2 mph 1.2 mph 56% 0.00 in 172.0 W/m2 BKN
19:18 71.1 °F 53.6 °F 29.83 in WNW 1.2 mph 1.2 mph 54% 0.00 in 158.0 W/m2 BKN
19:23 70.5 °F 51.0 °F 29.83 in WNW 3.5 mph 3.5 mph 50% 0.00 in 145.0 W/m2 BKN
19:28 70.0 °F 52.6 °F 29.83 in WNW 3.5 mph 3.5 mph 54% 0.00 in 132.0 W/m2 BKN
19:33 67.6 °F 51.4 °F 29.83 in WNW 3.5 mph 3.5 mph 56% 0.00 in 119.0 W/m2 BKN
19:38 66.4 °F 53.4 °F 29.83 in SSW 1.2 mph   63% 0.00 in 107.0 W/m2 BKN
19:43 66.6 °F 53.6 °F 29.83 in South 1.2 mph   63% 0.00 in 95.0 W/m2 BKN
19:48 67.8 °F 53.4 °F 29.83 in Calm     60% 0.00 in 83.0 W/m2 BKN
19:53 67.1 °F 54.1 °F 29.83 in Calm     63% 0.00 in 72.0 W/m2 BKN
19:58 66.4 °F 54.3 °F 29.83 in Calm     65% 0.00 in 62.0 W/m2 BKN
19:59 66.4 °F 53.4 °F 29.83 in Calm     63% 0.00 in 277.4 W/m2 BKN
20:04 65.5 °F 53.4 °F 29.84 in Calm     65% 0.00 in 273.4 W/m2 FEW
20:09 64.8 °F 54.3 °F 29.84 in Calm     69% 0.00 in 270.4 W/m2 FEW
20:15 64.0 °F 54.1 °F 29.83 in Calm     70% 0.00 in 259.3 W/m2 FEW
20:20 63.5 °F 55.1 °F 29.84 in Calm     74% 0.00 in 21.0 W/m2 FEW
20:25 63.0 °F 54.9 °F 29.84 in Calm     75% 0.00 in 14.0 W/m2 FEW
20:30 61.9 °F 54.9 °F 29.84 in Calm     78% 0.00 in 240.1 W/m2 FEW
20:35 61.3 °F 54.0 °F 29.84 in Calm     77% 0.00 in 235.0 W/m2 FEW
20:40 60.6 °F 53.7 °F 29.84 in Calm     78% 0.00 in 230.0 W/m2 FEW
20:45 60.1 °F 53.9 °F 29.85 in Calm     80% 0.00 in 212.8 W/m2 FEW
20:49 59.4 °F 53.5 °F 29.85 in Calm     81% 0.00 in 195.6 W/m2 FEW
20:54 58.8 °F 53.7 °F 29.85 in Calm     83% 0.00 in 185.5 W/m2 FEW
20:59 58.3 °F 53.8 °F 29.85 in Calm     85% 0.00 in 158.3 W/m2 FEW
21:04 57.7 °F 53.3 °F 29.85 in Calm     85% 0.00 in 119.9 W/m2 CLR
21:09 57.2 °F 53.0 °F 29.86 in Calm     86% 0.00 in 55.2 W/m2 CLR
21:14 56.7 °F 52.5 °F 29.85 in Calm     86% 0.00 in 55.2 W/m2 CLR
21:19 56.3 °F 52.8 °F 29.85 in Calm     88% 0.00 in 0.0 W/m2 CLR
21:24 55.9 °F 52.4 °F 29.86 in Calm     88% 0.00 in 0.0 W/m2 CLR
21:29 55.6 °F 52.1 °F 29.86 in Calm     88% 0.00 in 0.0 W/m2 CLR
21:35 55.2 °F 52.3 °F 29.87 in Calm     90% 0.00 in 0.0 W/m2 CLR
21:40 54.9 °F 52.3 °F 29.87 in Calm     91% 0.00 in 0.0 W/m2 CLR
21:45 54.3 °F 51.7 °F 29.87 in Calm     91% 0.00 in 0.0 W/m2 CLR
21:49 54.0 °F 52.0 °F 29.87 in Calm     93% 0.00 in 0.0 W/m2 CLR
21:54 53.8 °F 51.8 °F 29.87 in Calm     93% 0.00 in 0.0 W/m2 CLR
21:59 53.4 °F 52.0 °F 29.87 in Calm     95% 0.00 in 0.0 W/m2 CLR
22:05 53.2 °F 52.1 °F 29.87 in Calm     96% 0.00 in 0.0 W/m2 CLR
22:10 53.1 °F 52.0 °F 29.87 in Calm     96% 0.00 in 0.0 W/m2 CLR
22:15 52.5 °F 51.4 °F 29.87 in Calm     96% 0.00 in 0.0 W/m2 CLR
22:20 52.5 °F 51.4 °F 29.87 in Calm     96% 0.00 in 0.0 W/m2 CLR
22:25 52.3 °F 51.8 °F 29.87 in Calm     98% 0.00 in 0.0 W/m2 CLR
22:30 52.3 °F 51.8 °F 29.87 in Calm     98% 0.00 in 0.0 W/m2 CLR
22:35 52.3 °F 51.8 °F 29.87 in Calm     98% 0.00 in 0.0 W/m2 CLR
22:40 52.0 °F 50.9 °F 29.87 in Calm     96% 0.00 in 0.0 W/m2 CLR
22:45 52.2 °F 51.6 °F 29.87 in Calm     98% 0.00 in 0.0 W/m2 CLR
22:50 51.8 °F 50.7 °F 29.88 in Calm     96% 0.00 in 0.0 W/m2 CLR
22:55 51.4 °F 50.3 °F 29.88 in Calm     96% 0.00 in 0.0 W/m2 CLR
23:00 51.4 °F 50.3 °F 29.88 in Calm     96% 0.00 in 0.0 W/m2 CLR
23:05 51.3 °F 50.7 °F 29.88 in Calm     98% 0.00 in 0.0 W/m2 CLR
23:10 51.1 °F 50.5 °F 29.88 in Calm     98% 0.00 in 0.0 W/m2 CLR
23:15 51.1 °F 50.5 °F 29.88 in Calm     98% 0.00 in 0.0 W/m2 CLR
23:20 50.9 °F 50.4 °F 29.88 in Calm     98% 0.00 in 0.0 W/m2 CLR
23:25 50.7 °F 49.6 °F 29.88 in Calm     96% 0.00 in 0.0 W/m2 CLR
23:30 50.5 °F 49.4 °F 29.88 in Calm     96% 0.00 in 0.0 W/m2 CLR
23:35 50.4 °F 49.8 °F 29.88 in Calm     98% 0.00 in 0.0 W/m2 CLR
23:40 50.0 °F 49.5 °F 29.89 in Calm     98% 0.00 in 0.0 W/m2 CLR
23:45 50.2 °F 49.6 °F 29.89 in Calm     98% 0.00 in 0.0 W/m2 CLR
23:50 50.0 °F 49.5 °F 29.89 in Calm     98% 0.00 in 0.0 W/m2 CLR
23:55 49.8 °F 49.3 °F 29.89 in Calm     98% 0.00 in 0.0 W/m2 CLR
Juneau County Weather
Compliments of Weather Underground - 5.75 mb